Terminal Aerodrome Forecast
Issued by NWS

Home | Current Version | Previous Version | Text Only | Print | Product List | Glossary On
Versions: 1 2 3 4 5 6 7 8 9 10 11 12 13 14
380
FTUS43 KGRB 082343
TAFMTW
TAF
KMTW 082343Z 0900/0924 33012KT 6SM -SN SCT015 OVC025
      TEMPO 0900/0904 2SM -SHSN OVC015
     FM090400 34012KT 5SM -SN BR OVC011
     FM090600 32014G21KT 6SM -SN BKN015
     FM091200 33017G27KT P6SM OVC020 PROB30 0912/0915 6SM -SHSN=

USA.gov is the U.S. government's official web portal to all federal, state and local government web resources and services.